createdAt,value
2017-10-12T00:02:03.037Z,4.00
2017-10-12T00:04:30.890Z,3.77
2017-10-12T00:06:58.344Z,4.20
2017-10-12T00:09:25.724Z,3.87
2017-10-12T00:11:53.191Z,4.10
2017-10-12T00:14:20.911Z,4.63
2017-10-12T00:16:48.324Z,4.00
2017-10-12T00:19:15.724Z,4.07
2017-10-12T00:21:43.160Z,3.90
2017-10-12T00:24:10.580Z,3.90
2017-10-12T00:26:37.985Z,4.00
2017-10-12T00:29:05.418Z,3.67
2017-10-12T00:31:32.807Z,4.23
2017-10-12T00:34:00.237Z,4.57
2017-10-12T00:36:27.628Z,4.77
2017-10-12T00:38:55.044Z,4.00
2017-10-12T00:41:22.447Z,4.80
2017-10-12T00:43:49.905Z,4.03
2017-10-12T00:46:17.300Z,4.30
2017-10-12T00:48:44.715Z,4.47
2017-10-12T00:51:12.143Z,3.90
2017-10-12T00:53:39.582Z,4.20
2017-10-12T00:56:07.039Z,4.83
2017-10-12T00:58:34.443Z,5.03
2017-10-12T01:01:01.909Z,4.27
2017-10-12T01:03:29.320Z,4.40
2017-10-12T01:05:56.747Z,4.07
2017-10-12T01:08:24.139Z,4.50
2017-10-12T01:10:51.579Z,4.27
2017-10-12T01:13:18.987Z,4.70
2017-10-12T01:15:46.393Z,3.90
2017-10-12T01:18:13.960Z,4.20
2017-10-12T01:20:41.375Z,4.03
2017-10-12T01:23:08.809Z,4.07
2017-10-12T01:25:36.206Z,4.67
2017-10-12T01:28:03.623Z,5.20
2017-10-12T01:30:31.019Z,4.07
2017-10-12T01:32:58.456Z,3.80
2017-10-12T01:35:25.856Z,4.53
2017-10-12T01:37:53.262Z,4.37
2017-10-12T01:40:20.730Z,4.47
2017-10-12T01:42:48.129Z,4.13
2017-10-12T01:45:15.555Z,4.50
2017-10-12T01:47:42.967Z,4.60
2017-10-12T01:50:10.400Z,4.20
2017-10-12T01:52:37.809Z,4.00
2017-10-12T01:55:05.226Z,3.97
2017-10-12T01:57:32.631Z,4.17
2017-10-12T02:00:00.068Z,3.90
2017-10-12T02:02:27.501Z,4.40
2017-10-12T02:04:55.032Z,4.20
2017-10-12T02:07:22.430Z,3.90
2017-10-12T02:09:49.863Z,4.10
2017-10-12T02:12:17.308Z,4.20
2017-10-12T02:14:44.701Z,3.40
2017-10-12T02:17:12.136Z,4.27
2017-10-12T02:19:39.533Z,3.97
2017-10-12T02:22:06.969Z,4.20
2017-10-12T02:24:34.383Z,3.90
2017-10-12T02:27:01.807Z,4.03
2017-10-12T02:29:29.212Z,3.80
2017-10-12T02:31:56.621Z,4.40
2017-10-12T02:34:24.015Z,4.00
2017-10-12T02:36:51.452Z,3.63
2017-10-12T02:39:18.869Z,3.70
2017-10-12T02:41:46.288Z,3.97
2017-10-12T02:44:13.724Z,3.70
2017-10-12T02:46:41.133Z,3.90
2017-10-12T02:49:08.555Z,3.37
2017-10-12T02:51:35.944Z,3.90
2017-10-12T02:54:03.380Z,3.53
2017-10-12T02:56:30.768Z,3.90
2017-10-12T02:58:58.236Z,4.30
2017-10-12T03:01:25.630Z,4.00
2017-10-12T03:03:53.067Z,3.70
2017-10-12T03:06:20.460Z,3.57
2017-10-12T03:08:47.885Z,3.87
2017-10-12T03:11:15.267Z,3.70
2017-10-12T03:13:42.702Z,4.17
2017-10-12T03:16:10.119Z,3.23
2017-10-12T03:18:37.510Z,4.73
2017-10-12T03:21:04.927Z,4.40
2017-10-12T03:23:32.332Z,3.97
2017-10-12T03:25:59.751Z,4.40
2017-10-12T03:28:27.146Z,4.33
2017-10-12T03:30:54.581Z,3.77
2017-10-12T03:33:21.966Z,3.90
2017-10-12T03:35:49.421Z,4.17
2017-10-12T03:38:16.820Z,4.20
2017-10-12T03:40:44.231Z,4.00
2017-10-12T03:43:11.619Z,4.30
2017-10-12T03:45:39.039Z,4.40
2017-10-12T03:48:06.472Z,4.40
2017-10-12T03:50:33.877Z,4.50
2017-10-12T03:53:01.312Z,4.10
2017-10-12T03:55:28.695Z,4.17
2017-10-12T03:57:56.115Z,3.80
2017-10-12T04:00:23.515Z,4.67
2017-10-12T04:02:50.938Z,4.77
2017-10-12T04:05:18.362Z,4.80
2017-10-12T04:07:45.771Z,4.67
2017-10-12T04:10:13.199Z,5.33
2017-10-12T04:12:40.664Z,4.90
2017-10-12T04:15:08.056Z,4.90
2017-10-12T04:17:35.468Z,4.63
2017-10-12T04:20:02.888Z,4.63
2017-10-12T04:22:30.324Z,4.80
2017-10-12T04:24:57.731Z,5.00
2017-10-12T04:27:25.136Z,4.90
2017-10-12T04:29:52.575Z,4.87
2017-10-12T04:32:20.005Z,5.50
2017-10-12T04:34:47.435Z,4.90
2017-10-12T04:37:14.815Z,5.10
2017-10-12T04:39:42.248Z,5.80
2017-10-12T04:42:09.639Z,4.80
2017-10-12T04:44:37.059Z,4.77
2017-10-12T04:47:04.451Z,5.10
2017-10-12T04:49:31.883Z,4.70
2017-10-12T04:51:59.314Z,4.63
2017-10-12T04:54:26.723Z,4.83
2017-10-12T04:56:54.164Z,4.80
2017-10-12T04:59:21.572Z,5.17
2017-10-12T05:01:49.011Z,4.77
2017-10-12T05:04:16.438Z,5.13
2017-10-12T05:06:43.867Z,4.63
2017-10-12T05:09:11.250Z,4.80
2017-10-12T05:11:38.712Z,5.73
2017-10-12T05:14:06.111Z,5.10
2017-10-12T05:16:33.594Z,4.80
2017-10-12T05:19:01.015Z,4.53
2017-10-12T05:21:28.420Z,4.80
2017-10-12T05:23:55.864Z,5.20
2017-10-12T05:26:23.256Z,5.23
2017-10-12T05:28:50.673Z,5.40
2017-10-12T05:31:18.090Z,5.17
2017-10-12T05:33:45.601Z,5.43
2017-10-12T05:36:15.484Z,5.93
2017-10-12T05:38:44.380Z,5.37
2017-10-12T05:41:11.772Z,5.50
2017-10-12T05:43:39.220Z,5.27
2017-10-12T05:46:06.607Z,6.00
2017-10-12T05:48:34.013Z,5.50
2017-10-12T05:51:01.451Z,5.87
2017-10-12T05:53:28.920Z,5.93
2017-10-12T05:55:56.327Z,5.60
2017-10-12T05:58:23.745Z,5.60
2017-10-12T06:00:51.164Z,5.40
2017-10-12T06:03:18.555Z,5.47
2017-10-12T06:05:45.983Z,5.93
2017-10-12T06:08:13.412Z,6.30
2017-10-12T06:10:40.884Z,6.10
2017-10-12T06:13:08.271Z,5.07
2017-10-12T06:15:35.723Z,6.03
2017-10-12T06:18:03.911Z,5.40
2017-10-12T06:20:31.328Z,5.53
2017-10-12T06:22:58.811Z,6.13
2017-10-12T06:25:26.215Z,5.77
2017-10-12T06:27:53.648Z,6.20
2017-10-12T06:30:22.530Z,6.07
2017-10-12T06:32:49.944Z,5.87
2017-10-12T06:35:17.348Z,6.10
2017-10-12T06:37:44.780Z,5.97
2017-10-12T06:40:12.196Z,5.43
2017-10-12T06:42:39.630Z,6.50
2017-10-12T06:45:07.074Z,5.87
2017-10-12T06:47:34.499Z,6.73
2017-10-12T06:50:01.952Z,5.93
2017-10-12T06:52:29.349Z,6.67
2017-10-12T06:54:56.763Z,6.47
2017-10-12T06:57:24.152Z,5.93
2017-10-12T06:59:51.587Z,5.93
2017-10-12T07:02:18.985Z,6.70
2017-10-12T07:04:46.403Z,7.10
2017-10-12T07:07:13.792Z,7.97
2017-10-12T07:09:41.342Z,7.43
2017-10-12T07:12:08.781Z,7.90
2017-10-12T07:14:36.180Z,8.00
2017-10-12T07:17:03.632Z,8.20
2017-10-12T07:19:31.572Z,6.87
2017-10-12T07:21:58.988Z,7.70
2017-10-12T07:24:27.202Z,7.50
2017-10-12T07:26:54.599Z,7.60
2017-10-12T07:29:22.019Z,7.50
2017-10-12T07:31:49.480Z,6.77
2017-10-12T07:34:16.926Z,7.10
2017-10-12T07:36:44.340Z,6.60
2017-10-12T07:39:12.096Z,7.17
2017-10-12T07:41:39.482Z,6.57
2017-10-12T07:44:06.927Z,6.17
2017-10-12T07:46:34.322Z,6.63
2017-10-12T07:49:02.730Z,6.90
2017-10-12T07:51:30.150Z,7.10
2017-10-12T07:53:57.604Z,7.00
2017-10-12T07:56:25.027Z,7.20
2017-10-12T07:58:52.430Z,8.83
2017-10-12T08:01:19.872Z,7.27
2017-10-12T08:03:47.289Z,7.00
2017-10-12T08:06:14.769Z,7.83
2017-10-12T08:08:42.188Z,7.50
2017-10-12T08:11:09.648Z,6.83
2017-10-12T08:13:37.044Z,6.90
2017-10-12T08:16:04.491Z,7.30
2017-10-12T08:18:31.884Z,7.13
2017-10-12T08:20:59.324Z,6.90
2017-10-12T08:23:26.765Z,7.33
2017-10-12T08:25:54.247Z,6.77
2017-10-12T08:28:21.724Z,7.03
2017-10-12T08:30:49.167Z,6.93
2017-10-12T08:33:16.596Z,7.90
2017-10-12T08:35:44.039Z,7.00
2017-10-12T08:38:11.495Z,7.30
2017-10-12T08:40:38.884Z,7.10
2017-10-12T08:43:06.352Z,7.00
2017-10-12T08:45:33.764Z,7.20
2017-10-12T08:48:01.229Z,6.50
2017-10-12T08:50:28.635Z,5.47
2017-10-12T08:52:56.176Z,6.50
2017-10-12T08:55:23.556Z,6.97
2017-10-12T08:57:50.976Z,5.90
2017-10-12T09:00:18.371Z,5.80
2017-10-12T09:02:45.812Z,6.30
2017-10-12T09:05:13.231Z,4.60
2017-10-12T09:07:40.651Z,5.30
2017-10-12T09:10:08.091Z,6.93
2017-10-12T09:12:48.594Z,5.63
2017-10-12T09:15:16.083Z,6.20
2017-10-12T09:17:43.472Z,4.87
2017-10-12T09:20:10.928Z,6.63
2017-10-12T09:22:38.344Z,6.10
2017-10-12T09:25:05.801Z,5.40
2017-10-12T09:27:33.212Z,4.50
2017-10-12T09:30:00.624Z,5.10
2017-10-12T09:32:28.122Z,5.37
2017-10-12T09:34:55.607Z,5.27
2017-10-12T09:37:23.246Z,5.67
2017-10-12T09:39:50.808Z,5.70
2017-10-12T09:42:20.952Z,5.70
2017-10-12T09:44:48.368Z,5.30
2017-10-12T09:47:15.840Z,5.33
2017-10-12T09:49:43.274Z,5.60
2017-10-12T09:52:12.528Z,5.50
2017-10-12T09:54:40.037Z,5.60
2017-10-12T09:57:07.500Z,5.20
2017-10-12T09:59:34.917Z,5.70
2017-10-12T10:02:02.653Z,4.80
2017-10-12T10:04:30.189Z,5.00
2017-10-12T10:06:57.615Z,4.70
2017-10-12T10:09:25.041Z,3.90
2017-10-12T10:11:52.638Z,4.20
2017-10-12T10:14:20.057Z,4.90
2017-10-12T10:16:47.445Z,4.77
2017-10-12T10:19:14.885Z,4.90
2017-10-12T10:21:42.297Z,4.90
2017-10-12T10:24:09.766Z,5.33
2017-10-12T10:26:37.183Z,5.33
2017-10-12T10:29:04.613Z,5.80
2017-10-12T10:31:32.007Z,5.63
2017-10-12T10:36:36.264Z,5.67
2017-10-12T10:39:03.712Z,5.90
2017-10-12T10:41:31.156Z,5.60
2017-10-12T10:43:58.549Z,4.57
2017-10-12T10:46:25.995Z,5.17
2017-10-12T10:48:53.409Z,4.83
2017-10-12T10:51:20.844Z,4.50
2017-10-12T10:53:48.252Z,5.20
2017-10-12T10:56:15.671Z,4.90
2017-10-12T10:58:43.104Z,4.70
2017-10-12T11:01:10.527Z,5.30
2017-10-12T11:03:37.935Z,5.27
2017-10-12T11:06:05.358Z,5.37
2017-10-12T11:08:32.751Z,5.43
2017-10-12T11:11:00.220Z,5.10
2017-10-12T11:13:27.607Z,5.60
2017-10-12T11:15:55.033Z,5.13
2017-10-12T11:18:22.453Z,6.17
2017-10-12T11:20:49.886Z,4.90
2017-10-12T11:23:17.329Z,5.17
2017-10-12T11:25:44.722Z,4.80
2017-10-12T11:28:12.972Z,5.60
2017-10-12T11:30:40.426Z,4.20
2017-10-12T11:33:07.812Z,3.60
2017-10-12T11:35:35.256Z,4.20
2017-10-12T11:38:03.290Z,3.67
2017-10-12T11:40:30.704Z,3.60
2017-10-12T11:42:58.112Z,4.00
2017-10-12T11:45:25.584Z,3.57
2017-10-12T11:47:53.010Z,3.13
2017-10-12T11:50:20.428Z,3.70
2017-10-12T11:52:47.843Z,3.83
2017-10-12T11:55:15.416Z,4.10
2017-10-12T11:57:42.871Z,3.40
2017-10-12T12:00:10.271Z,4.20
2017-10-12T12:02:37.757Z,3.50
2017-10-12T12:05:05.238Z,3.63
2017-10-12T12:07:32.704Z,4.10
2017-10-12T12:10:00.182Z,3.00
2017-10-12T12:12:27.656Z,3.10
2017-10-12T12:14:55.052Z,4.03
2017-10-12T12:17:22.499Z,3.10
2017-10-12T12:19:49.926Z,3.60
2017-10-12T12:22:17.363Z,3.60
2017-10-12T12:24:44.790Z,3.70
2017-10-12T12:27:13.030Z,3.53
2017-10-12T12:29:40.467Z,3.10
2017-10-12T12:32:07.920Z,3.63
2017-10-12T12:34:35.338Z,3.60
2017-10-12T12:37:02.773Z,3.23
2017-10-12T12:39:30.264Z,3.17
2017-10-12T12:41:57.691Z,3.53
2017-10-12T12:44:25.140Z,2.70
2017-10-12T12:46:52.570Z,3.50
2017-10-12T12:49:20.110Z,3.13
2017-10-12T12:51:47.526Z,3.60
2017-10-12T12:54:15.426Z,3.40
2017-10-12T12:56:42.860Z,3.23
2017-10-12T12:59:10.293Z,3.60
2017-10-12T13:01:37.702Z,3.73
2017-10-12T13:04:05.162Z,3.70
2017-10-12T13:06:32.613Z,3.73
2017-10-12T13:09:00.045Z,3.37
2017-10-12T13:11:27.488Z,3.43
2017-10-12T13:13:54.930Z,4.00
2017-10-12T13:16:22.372Z,3.97
2017-10-12T13:18:49.824Z,3.50
2017-10-12T13:21:17.302Z,3.50
2017-10-12T13:23:44.789Z,3.40
2017-10-12T13:26:12.286Z,3.20
2017-10-12T13:28:39.774Z,3.43
2017-10-12T13:31:07.205Z,3.23
2017-10-12T13:33:34.627Z,4.00
2017-10-12T13:36:02.111Z,3.20
2017-10-12T13:38:29.511Z,3.40
2017-10-12T13:40:56.980Z,3.03
2017-10-12T13:43:24.439Z,3.80
2017-10-12T13:45:51.924Z,3.23
2017-10-12T13:48:19.502Z,3.40
2017-10-12T13:50:49.390Z,2.80
2017-10-12T13:53:16.990Z,3.20
2017-10-12T13:55:44.692Z,2.80
2017-10-12T13:58:12.257Z,3.77
2017-10-12T14:01:09.943Z,3.40
2017-10-12T14:03:37.532Z,3.40
2017-10-12T14:06:06.160Z,3.13
2017-10-12T14:08:33.590Z,3.40
2017-10-12T14:11:00.979Z,3.80
2017-10-12T14:13:28.427Z,3.00
2017-10-12T14:15:55.866Z,2.70
2017-10-12T14:18:24.171Z,2.63
2017-10-12T14:20:51.592Z,2.90
2017-10-12T14:23:19.013Z,2.47
2017-10-12T14:25:46.455Z,3.00
2017-10-12T14:28:13.839Z,2.67
2017-10-12T14:30:41.316Z,2.50
2017-10-12T14:33:08.720Z,2.63
2017-10-12T14:35:36.164Z,2.87
2017-10-12T14:38:03.552Z,2.87
2017-10-12T14:40:30.996Z,2.63
2017-10-12T14:42:58.408Z,2.90
2017-10-12T14:45:27.277Z,3.07
2017-10-12T14:47:54.669Z,3.10
2017-10-12T14:50:22.101Z,3.30
2017-10-12T14:52:49.521Z,2.83
2017-10-12T14:55:16.959Z,3.40
2017-10-12T14:57:44.380Z,2.93
2017-10-12T15:00:12.596Z,3.10
2017-10-12T15:02:40.037Z,2.70
2017-10-12T15:05:07.454Z,3.00
2017-10-12T15:07:34.876Z,3.20
2017-10-12T15:10:02.388Z,3.10
2017-10-12T15:12:29.829Z,4.20
2017-10-12T15:14:57.239Z,4.87
2017-10-12T15:17:24.867Z,3.00
2017-10-12T15:19:52.265Z,3.43
2017-10-12T15:22:19.725Z,3.90
2017-10-12T15:24:47.884Z,3.60
2017-10-12T15:27:15.297Z,3.60
2017-10-12T15:29:42.708Z,3.60
2017-10-12T15:32:10.219Z,3.57
2017-10-12T15:34:37.660Z,3.10
2017-10-12T15:37:05.060Z,3.07
2017-10-12T15:39:32.503Z,3.40
2017-10-12T15:42:00.763Z,3.40
2017-10-12T15:44:28.204Z,3.00
2017-10-12T15:46:55.628Z,3.17
2017-10-12T15:49:23.054Z,3.30
2017-10-12T15:51:50.992Z,3.40
2017-10-12T15:54:18.932Z,3.50
2017-10-12T15:56:46.369Z,3.50
2017-10-12T15:59:13.762Z,3.33
2017-10-12T16:01:41.172Z,3.70
2017-10-12T16:04:08.584Z,3.00
2017-10-12T16:06:36.074Z,3.30
2017-10-12T16:09:03.481Z,2.90
2017-10-12T16:11:31.635Z,3.47
2017-10-12T16:13:59.039Z,3.70
2017-10-12T16:16:26.511Z,3.07
2017-10-12T16:18:53.903Z,3.57
2017-10-12T16:21:21.303Z,3.13
2017-10-12T16:23:48.752Z,3.03
2017-10-12T16:26:16.133Z,3.70
2017-10-12T16:28:43.548Z,3.67
2017-10-12T16:31:10.940Z,3.80
2017-10-12T16:33:38.365Z,4.07
2017-10-12T16:36:05.760Z,3.30
2017-10-12T16:38:33.193Z,3.43
2017-10-12T16:41:00.608Z,3.10
2017-10-12T16:43:28.062Z,4.30
2017-10-12T16:45:55.467Z,3.33
2017-10-12T16:48:22.915Z,4.20
2017-10-12T16:53:17.724Z,3.10
2017-10-12T16:55:45.149Z,3.80
2017-10-12T16:58:12.541Z,3.10
2017-10-12T17:00:40.524Z,3.63
2017-10-12T17:03:07.912Z,3.90
2017-10-12T17:05:35.406Z,3.83
2017-10-12T17:08:02.869Z,3.37
2017-10-12T17:10:30.284Z,3.27
2017-10-12T17:12:57.725Z,4.10
2017-10-12T17:15:25.141Z,3.50
2017-10-12T17:17:52.618Z,3.50
2017-10-12T17:20:20.106Z,3.90
2017-10-12T17:22:47.622Z,3.73
2017-10-12T17:25:15.155Z,3.47
2017-10-12T17:27:42.720Z,3.47
2017-10-12T17:30:10.273Z,4.17
2017-10-12T17:32:37.833Z,3.37
2017-10-12T17:35:05.480Z,3.87
2017-10-12T17:37:33.176Z,4.70
2017-10-12T17:40:00.879Z,4.90
2017-10-12T17:42:28.458Z,5.00
2017-10-12T17:44:56.127Z,5.63
2017-10-12T17:47:23.806Z,4.80
2017-10-12T17:49:51.485Z,4.67
2017-10-12T17:52:19.156Z,4.50
2017-10-12T17:54:46.808Z,4.90
2017-10-12T17:57:14.511Z,5.03
2017-10-12T17:59:42.227Z,5.00
2017-10-12T18:02:09.895Z,4.90
2017-10-12T18:07:05.468Z,4.17
2017-10-12T18:09:32.996Z,4.30
2017-10-12T18:12:30.517Z,4.50
2017-10-12T18:14:28.314Z,4.50
2017-10-12T18:16:55.846Z,3.70
2017-10-12T18:19:23.399Z,4.90
2017-10-12T18:21:50.898Z,4.20
2017-10-12T18:24:18.534Z,4.20
2017-10-12T18:26:46.207Z,4.20
2017-10-12T18:29:13.856Z,4.00
2017-10-12T18:31:41.493Z,4.70
2017-10-12T18:34:09.055Z,4.40
2017-10-12T18:36:36.530Z,4.20
2017-10-12T18:39:03.988Z,4.27
2017-10-12T18:41:31.459Z,4.13
2017-10-12T18:43:58.926Z,4.13
2017-10-12T18:46:26.386Z,4.90
2017-10-12T18:48:53.897Z,4.37
2017-10-12T18:51:21.346Z,4.40
2017-10-12T18:53:48.803Z,5.20
2017-10-12T18:56:16.212Z,4.17
2017-10-12T18:58:43.637Z,4.30
2017-10-12T19:01:11.069Z,4.50
2017-10-12T19:03:38.506Z,4.80
2017-10-12T19:06:05.941Z,5.40
2017-10-12T19:08:33.398Z,4.90
2017-10-12T19:11:00.796Z,4.73
2017-10-12T19:13:28.208Z,4.90
2017-10-12T19:15:55.669Z,4.77
2017-10-12T19:18:23.059Z,5.93
2017-10-12T19:20:50.515Z,4.60
2017-10-12T19:23:19.239Z,4.70
2017-10-12T19:25:46.698Z,4.33
2017-10-12T19:28:43.557Z,4.10
2017-10-12T19:30:41.541Z,4.30
2017-10-12T19:33:09.009Z,4.60
2017-10-12T19:35:36.387Z,4.00
2017-10-12T19:38:03.784Z,4.60
2017-10-12T19:40:31.226Z,4.50
2017-10-12T19:42:58.610Z,4.30
2017-10-12T19:45:26.026Z,4.57
2017-10-12T19:47:53.416Z,4.83
2017-10-12T19:50:20.845Z,4.70
2017-10-12T19:52:48.260Z,4.67
2017-10-12T19:55:16.464Z,5.07
2017-10-12T19:57:43.888Z,5.10
2017-10-12T20:00:11.313Z,5.50
2017-10-12T20:02:38.724Z,5.23
2017-10-12T20:05:07.570Z,4.73
2017-10-12T20:07:35.001Z,5.70
2017-10-12T20:10:02.461Z,5.10
2017-10-12T20:12:29.931Z,5.13
2017-10-12T20:14:58.108Z,5.40
2017-10-12T20:17:25.492Z,5.10
2017-10-12T20:19:53.893Z,6.67
2017-10-12T20:22:22.104Z,5.97
2017-10-12T20:24:49.586Z,6.43
2017-10-12T20:27:16.996Z,5.80
2017-10-12T20:29:44.767Z,7.10
2017-10-12T20:32:12.163Z,6.50
2017-10-12T20:34:39.613Z,5.13
2017-10-12T20:37:07.028Z,5.10
2017-10-12T20:39:34.492Z,5.00
2017-10-12T20:42:16.886Z,4.17
2017-10-12T20:44:29.349Z,5.10
2017-10-12T20:49:24.323Z,4.70
2017-10-12T20:51:51.783Z,5.10
2017-10-12T20:54:19.216Z,4.93
2017-10-12T20:56:46.616Z,5.07
2017-10-12T20:59:14.147Z,4.80
2017-10-12T21:01:41.585Z,5.30
2017-10-12T21:04:09.017Z,5.13
2017-10-12T21:06:36.461Z,5.67
2017-10-12T21:09:03.884Z,5.87
2017-10-12T21:11:31.287Z,4.40
2017-10-12T21:13:58.730Z,5.97
2017-10-12T21:16:26.899Z,6.53
2017-10-12T21:18:54.323Z,7.27
2017-10-12T21:21:21.731Z,6.50
2017-10-12T21:23:49.213Z,7.10
2017-10-12T21:26:16.637Z,5.87
2017-10-12T21:28:44.038Z,6.00
2017-10-12T21:31:11.457Z,5.20
2017-10-12T21:33:38.855Z,4.60
2017-10-12T21:36:06.275Z,5.10
2017-10-12T21:38:33.685Z,4.80
2017-10-12T21:41:01.159Z,4.97
2017-10-12T21:43:28.578Z,6.40
2017-10-12T21:45:55.992Z,6.40
2017-10-12T21:48:23.728Z,8.00
2017-10-12T21:50:51.168Z,7.57
2017-10-12T21:53:18.577Z,8.57
2017-10-12T21:55:46.015Z,8.43
2017-10-12T21:58:13.439Z,8.07
2017-10-12T22:00:40.859Z,8.60
2017-10-12T22:03:08.288Z,8.30
2017-10-12T22:05:35.707Z,8.03
2017-10-12T22:08:03.115Z,7.83
2017-10-12T22:10:30.543Z,8.23
2017-10-12T22:12:57.961Z,7.67
2017-10-12T22:15:25.368Z,7.57
2017-10-12T22:17:52.801Z,7.57
2017-10-12T22:20:20.223Z,7.20
2017-10-12T22:22:47.654Z,7.17
2017-10-12T22:25:15.052Z,6.63
2017-10-12T22:27:42.472Z,5.20
2017-10-12T22:30:09.931Z,5.33
2017-10-12T22:32:37.383Z,4.50
2017-10-12T22:35:04.792Z,5.00
2017-10-12T22:37:32.205Z,5.63
2017-10-12T22:39:59.631Z,5.87
2017-10-12T22:42:27.052Z,4.50
2017-10-12T22:44:55.075Z,4.17
2017-10-12T22:47:22.464Z,4.87
2017-10-12T22:49:49.920Z,4.70
2017-10-12T22:52:17.351Z,4.40
2017-10-12T22:54:44.800Z,4.77
2017-10-12T22:57:12.188Z,5.07
2017-10-12T22:59:39.615Z,5.50
2017-10-12T23:02:07.020Z,4.87
2017-10-12T23:04:34.455Z,4.50
2017-10-12T23:07:01.869Z,4.20
2017-10-12T23:09:29.280Z,4.47
2017-10-12T23:11:56.700Z,4.10
2017-10-12T23:14:24.123Z,4.47
2017-10-12T23:16:51.533Z,4.40
2017-10-12T23:19:19.027Z,4.57
2017-10-12T23:21:46.459Z,4.27
2017-10-12T23:24:13.888Z,5.00
2017-10-12T23:26:41.324Z,5.53
2017-10-12T23:29:08.716Z,7.17
2017-10-12T23:31:36.144Z,5.80
2017-10-12T23:34:03.554Z,7.77
2017-10-12T23:36:30.986Z,5.30
2017-10-12T23:38:58.395Z,6.10
2017-10-12T23:41:25.799Z,6.10
2017-10-12T23:43:53.252Z,6.83
2017-10-12T23:46:20.640Z,6.30
2017-10-12T23:48:48.070Z,8.00
2017-10-12T23:51:15.513Z,6.57
2017-10-12T23:53:42.952Z,6.70
2017-10-12T23:56:10.360Z,6.27
2017-10-12T23:58:37.784Z,6.77
